Terminal Aerodrome Forecast
Issued by NWS

Home | Current Version | Previous Version | Text Only | Print | Product List | Glossary Off
Versions: 1 2 3 4 5 6 7 8 9 10 11 12 13 14 15 16 17 18 19 20 21 22

000
FTUS43 KBIS 192300
TAFDIK
TAF
KDIK 192334Z 2000/2024 17011KT P6SM FEW070 SCT250
     FM201100 16008KT P6SM BKN100
     FM201400 16009KT P6SM -SHRA OVC080
     FM201700 16012KT P6SM -SHRA OVC060
      TEMPO 2017/2021 3SM TSRA BKN030CB OVC050
     FM202300 27009KT P6SM -SHRA OVC050=

USA.gov is the U.S. government's official web portal to all federal, state and local government web resources and services.